createdAt,value
2019-04-29T00:00:53.059Z,10.20
2019-04-29T00:03:24.232Z,10.30
2019-04-29T00:05:55.369Z,10.30
2019-04-29T00:08:26.381Z,10.30
2019-04-29T00:10:57.403Z,10.30
2019-04-29T00:13:28.459Z,10.30
2019-04-29T00:16:12.710Z,10.30
2019-04-29T00:18:56.376Z,10.30
2019-04-29T00:21:27.479Z,10.30
2019-04-29T00:24:03.909Z,10.30
2019-04-29T00:26:31.195Z,10.40
2019-04-29T00:29:02.263Z,10.40
2019-04-29T00:31:33.420Z,10.40
2019-04-29T00:34:04.479Z,10.40
2019-04-29T00:36:42.248Z,10.40
2019-04-29T00:39:28.783Z,10.40
2019-04-29T00:42:16.377Z,10.40
2019-04-29T00:44:47.438Z,10.40
2019-04-29T00:47:18.551Z,10.40
2019-04-29T00:52:21.147Z,10.30
2019-04-29T00:54:57.560Z,10.40
2019-04-29T00:57:47.548Z,10.40
2019-04-29T01:00:31.607Z,10.40
2019-04-29T01:03:02.984Z,10.40
2019-04-29T01:05:34.267Z,10.30
2019-04-29T01:08:05.580Z,10.30
2019-04-29T01:10:36.756Z,10.30
2019-04-29T01:13:07.951Z,10.30
2019-04-29T01:15:39.347Z,10.30
2019-04-29T01:18:11.059Z,10.30
2019-04-29T01:20:42.127Z,10.30
2019-04-29T01:23:13.216Z,10.20
2019-04-29T01:25:45.776Z,10.30
2019-04-29T01:31:14.380Z,10.30
2019-04-29T01:33:46.305Z,10.30
2019-04-29T01:39:10.259Z,10.40
2019-04-29T01:44:39.427Z,10.30
2019-04-29T01:47:10.447Z,10.30
2019-04-29T01:49:41.457Z,10.30
2019-04-29T01:52:12.439Z,10.30
2019-04-29T01:54:43.503Z,10.30
2019-04-29T01:57:14.507Z,10.30
2019-04-29T02:02:15.699Z,10.30
2019-04-29T02:07:16.851Z,10.30
2019-04-29T02:12:28.298Z,10.30
2019-04-29T02:14:59.295Z,10.30
2019-04-29T02:17:30.299Z,10.30
2019-04-29T02:20:01.357Z,10.20
2019-04-29T02:22:37.827Z,10.20
2019-04-29T02:25:16.556Z,10.20
2019-04-29T02:30:47.328Z,10.20
2019-04-29T02:35:48.461Z,10.20
2019-04-29T02:38:27.698Z,10.30
2019-04-29T02:41:08.956Z,10.20
2019-04-29T02:43:42.720Z,10.20
2019-04-29T02:46:13.763Z,10.20
2019-04-29T02:48:44.751Z,10.20
2019-04-29T02:51:34.624Z,10.20
2019-04-29T02:54:05.615Z,10.20
2019-04-29T02:56:36.831Z,10.20
2019-04-29T02:59:08.424Z,10.20
2019-04-29T03:01:46.989Z,10.20
2019-04-29T03:06:54.295Z,10.20
2019-04-29T03:11:56.244Z,10.20
2019-04-29T03:14:27.331Z,10.20
2019-04-29T03:16:58.756Z,10.20
2019-04-29T03:19:34.416Z,10.10
2019-04-29T03:22:06.896Z,10.10
2019-04-29T03:24:37.956Z,10.10
2019-04-29T03:27:08.959Z,10.10
2019-04-29T03:29:39.957Z,10.10
2019-04-29T03:32:10.944Z,10.10
2019-04-29T03:34:41.969Z,10.10
2019-04-29T03:37:12.964Z,10.10
2019-04-29T03:39:43.983Z,10.10
2019-04-29T03:42:14.971Z,10.10
2019-04-29T03:44:46.032Z,10.10
2019-04-29T03:47:19.039Z,10.10
2019-04-29T03:49:50.213Z,10.20
2019-04-29T03:52:22.272Z,10.20
2019-04-29T03:54:53.384Z,10.10
2019-04-29T03:57:24.372Z,10.20
2019-04-29T03:59:57.071Z,10.20
2019-04-29T04:02:37.800Z,10.20
2019-04-29T04:05:24.647Z,10.20
2019-04-29T04:08:14.602Z,10.30
2019-04-29T04:10:45.648Z,10.30
2019-04-29T04:13:16.632Z,10.30
2019-04-29T04:15:47.627Z,10.30
2019-04-29T04:18:25.404Z,10.40
2019-04-29T04:23:26.574Z,10.30
2019-04-29T04:25:57.525Z,10.40
2019-04-29T04:28:28.521Z,10.40
2019-04-29T04:30:59.513Z,10.40
2019-04-29T04:33:30.505Z,10.40
2019-04-29T04:38:31.645Z,10.40
2019-04-29T04:46:06.308Z,10.50
2019-04-29T04:48:37.524Z,10.50
2019-04-29T04:51:08.811Z,10.40
2019-04-29T04:53:39.965Z,10.60
2019-04-29T04:58:41.153Z,10.60
2019-04-29T05:01:12.152Z,10.80
2019-04-29T05:03:43.171Z,10.90
2019-04-29T05:06:14.154Z,11.10
2019-04-29T05:08:45.267Z,11.20
2019-04-29T05:11:16.385Z,11.40
2019-04-29T05:13:47.644Z,11.40
2019-04-29T05:16:19.091Z,11.40
2019-04-29T05:21:20.259Z,11.30
2019-04-29T05:23:51.260Z,11.30
2019-04-29T05:26:22.246Z,11.30
2019-04-29T05:28:53.576Z,11.20
2019-04-29T05:31:24.696Z,11.40
2019-04-29T05:33:55.695Z,11.40
2019-04-29T05:36:51.843Z,11.40
2019-04-29T05:39:29.658Z,11.40
2019-04-29T05:44:52.576Z,11.40
2019-04-29T05:50:18.725Z,11.40
2019-04-29T05:53:00.767Z,11.50
2019-04-29T05:55:31.755Z,11.50
2019-04-29T05:58:12.091Z,11.60
2019-04-29T06:00:52.579Z,11.60
2019-04-29T06:05:53.847Z,11.60
2019-04-29T06:08:25.912Z,11.60
2019-04-29T06:10:57.247Z,11.70
2019-04-29T06:13:28.279Z,11.70
2019-04-29T06:15:59.368Z,11.60
2019-04-29T06:18:30.427Z,11.60
2019-04-29T06:21:08.790Z,11.70
2019-04-29T06:23:34.934Z,11.70
2019-04-29T06:26:06.131Z,11.80
2019-04-29T06:28:37.319Z,11.70
2019-04-29T06:31:08.531Z,11.50
2019-04-29T06:33:39.691Z,11.50
2019-04-29T06:36:10.808Z,11.50
2019-04-29T06:41:12.290Z,11.70
2019-04-29T06:46:13.746Z,12.10
2019-04-29T06:48:44.903Z,12.30
2019-04-29T06:51:16.095Z,12.60
2019-04-29T06:53:47.868Z,12.70
2019-04-29T06:56:19.360Z,12.60
2019-04-29T06:58:50.515Z,12.30
2019-04-29T07:01:21.536Z,12.20
2019-04-29T07:03:55.823Z,12.00
2019-04-29T07:08:56.523Z,12.00
2019-04-29T07:11:31.684Z,12.10
2019-04-29T07:14:00.480Z,12.20
2019-04-29T07:16:32.135Z,12.30
2019-04-29T07:19:03.479Z,12.50
2019-04-29T07:21:34.603Z,12.60
2019-04-29T07:26:36.983Z,12.80
2019-04-29T07:29:08.172Z,12.80
2019-04-29T07:31:39.373Z,12.90
2019-04-29T07:34:10.544Z,13.10
2019-04-29T07:36:41.683Z,13.00
2019-04-29T07:39:13.880Z,13.10
2019-04-29T07:44:18.294Z,13.50
2019-04-29T07:47:00.218Z,13.50
2019-04-29T07:51:56.731Z,13.90
2019-04-29T07:54:27.907Z,14.00
2019-04-29T07:56:59.128Z,14.10
2019-04-29T07:59:33.843Z,14.10
2019-04-29T08:04:33.483Z,14.60
2019-04-29T08:07:04.667Z,14.90
2019-04-29T08:09:35.759Z,15.10
2019-04-29T08:12:06.822Z,15.20
2019-04-29T08:14:40.085Z,15.20
2019-04-29T08:17:11.153Z,15.30
2019-04-29T08:19:42.152Z,15.40
2019-04-29T08:22:17.845Z,15.50
2019-04-29T08:24:50.450Z,15.70
2019-04-29T08:27:18.791Z,16.30
2019-04-29T08:29:50.039Z,17.00
2019-04-29T08:32:21.315Z,17.60
2019-04-29T08:37:25.016Z,17.60
2019-04-29T08:40:14.945Z,17.80
2019-04-29T08:42:32.474Z,18.30
2019-04-29T08:45:12.007Z,18.30
2019-04-29T08:47:44.639Z,18.00
2019-04-29T08:50:16.083Z,18.10
2019-04-29T08:52:47.868Z,18.40
2019-04-29T08:55:19.660Z,19.00
2019-04-29T09:00:23.418Z,19.70
2019-04-29T09:02:54.634Z,20.80
2019-04-29T09:05:25.839Z,21.30
2019-04-29T09:07:59.082Z,21.80
2019-04-29T09:10:33.077Z,21.10
2019-04-29T09:13:03.217Z,20.50
2019-04-29T09:15:34.919Z,21.60
2019-04-29T09:18:06.164Z,22.10
2019-04-29T09:20:38.051Z,23.10
2019-04-29T09:26:03.182Z,25.60
2019-04-29T09:28:35.123Z,24.00
2019-04-29T09:31:06.987Z,23.90
2019-04-29T09:33:38.833Z,26.00
2019-04-29T09:36:13.910Z,28.20
2019-04-29T09:38:43.999Z,29.50
2019-04-29T09:41:26.030Z,30.60
2019-04-29T09:44:16.823Z,32.50
2019-04-29T09:46:49.331Z,33.40
2019-04-29T09:49:20.983Z,34.00
2019-04-29T09:51:52.604Z,34.70
2019-04-29T09:54:24.178Z,35.10
2019-04-29T09:56:55.843Z,36.40
2019-04-29T09:59:52.628Z,35.20
2019-04-29T10:02:52.055Z,36.30
2019-04-29T10:05:48.480Z,37.40
2019-04-29T10:08:20.083Z,39.00
2019-04-29T10:10:51.733Z,38.90
2019-04-29T10:13:23.411Z,38.10
2019-04-29T10:16:12.575Z,37.90
2019-04-29T10:18:54.962Z,38.80
2019-04-29T10:23:57.247Z,37.50
2019-04-29T10:26:28.876Z,37.40
2019-04-29T10:29:04.600Z,35.10
2019-04-29T10:31:36.556Z,31.70
2019-04-29T10:34:08.907Z,31.30
2019-04-29T10:36:40.628Z,30.10
2019-04-29T10:39:30.880Z,29.50
2019-04-29T10:42:03.415Z,28.70
2019-04-29T10:44:40.268Z,29.20
2019-04-29T10:47:25.118Z,28.80
2019-04-29T10:50:03.718Z,28.00
2019-04-29T10:52:38.693Z,28.60
2019-04-29T10:55:10.167Z,28.10
2019-04-29T10:57:44.949Z,28.40
2019-04-29T11:00:52.841Z,29.60
2019-04-29T11:03:25.110Z,29.00
2019-04-29T11:06:01.793Z,27.50
2019-04-29T11:11:23.380Z,25.20
2019-04-29T11:13:50.739Z,25.30
2019-04-29T11:16:27.165Z,25.40
2019-04-29T11:19:00.198Z,27.00
2019-04-29T11:21:31.274Z,27.40
2019-04-29T11:24:12.676Z,27.50
2019-04-29T11:32:12.499Z,28.80
2019-04-29T11:34:59.755Z,31.80
2019-04-29T11:40:03.295Z,30.80
2019-04-29T11:42:39.342Z,31.00
2019-04-29T11:45:09.692Z,31.60
2019-04-29T11:47:41.563Z,31.50
2019-04-29T11:50:19.596Z,31.70
2019-04-29T11:55:23.277Z,34.30
2019-04-29T12:03:37.420Z,32.50
2019-04-29T12:06:10.391Z,32.40
2019-04-29T12:08:42.415Z,30.90
2019-04-29T12:11:15.039Z,32.20
2019-04-29T12:16:43.627Z,37.60
2019-04-29T12:21:58.010Z,36.90
2019-04-29T12:24:29.731Z,37.50
2019-04-29T12:27:01.491Z,39.90
2019-04-29T12:32:25.014Z,41.30
2019-04-29T12:38:10.933Z,38.00
2019-04-29T12:43:59.643Z,31.90
2019-04-29T12:46:54.073Z,30.40
2019-04-29T12:49:25.927Z,30.60
2019-04-29T12:51:57.853Z,31.80
2019-04-29T12:57:00.388Z,28.00
2019-04-29T12:59:35.607Z,27.30
2019-04-29T13:02:30.551Z,28.40
2019-04-29T13:05:33.583Z,28.50
2019-04-29T13:08:22.604Z,27.50
2019-04-29T13:10:58.541Z,26.80
2019-04-29T13:13:30.319Z,30.10
2019-04-29T13:16:23.919Z,33.20
2019-04-29T13:19:11.404Z,35.30
2019-04-29T13:24:22.085Z,35.60
2019-04-29T13:26:42.529Z,32.40
2019-04-29T13:29:26.404Z,30.50
2019-04-29T13:31:45.479Z,29.10
2019-04-29T13:34:31.411Z,30.10
2019-04-29T13:37:07.443Z,29.50
2019-04-29T13:39:39.645Z,32.20
2019-04-29T13:42:15.404Z,35.20
2019-04-29T13:45:04.476Z,38.00
2019-04-29T13:47:29.304Z,41.50
2019-04-29T13:50:17.937Z,43.50
2019-04-29T13:52:42.347Z,44.50
2019-04-29T13:55:17.980Z,44.50
2019-04-29T13:57:49.674Z,44.70
2019-04-29T14:00:55.740Z,45.30
2019-04-29T14:06:04.663Z,39.80
2019-04-29T14:08:35.979Z,36.70
2019-04-29T14:11:07.407Z,35.60
2019-04-29T14:13:43.136Z,37.00
2019-04-29T14:16:13.187Z,39.50
2019-04-29T14:18:48.292Z,41.10
2019-04-29T14:21:17.587Z,41.10
2019-04-29T14:23:48.955Z,41.20
2019-04-29T14:26:20.331Z,41.90
2019-04-29T14:28:51.675Z,40.60
2019-04-29T14:31:24.554Z,40.80
2019-04-29T14:34:07.475Z,40.90
2019-04-29T14:36:38.755Z,39.20
2019-04-29T14:41:50.909Z,36.10
2019-04-29T14:44:42.663Z,35.50
2019-04-29T14:47:36.171Z,35.90
2019-04-29T14:50:10.591Z,35.80
2019-04-29T14:52:44.676Z,36.30
2019-04-29T14:55:15.230Z,35.80
2019-04-29T14:57:47.070Z,35.90
2019-04-29T15:00:37.151Z,35.20
2019-04-29T15:03:08.920Z,34.50
2019-04-29T15:05:40.713Z,33.30
2019-04-29T15:08:12.520Z,32.80
2019-04-29T15:10:45.849Z,32.10
2019-04-29T15:13:21.107Z,31.30
2019-04-29T15:16:14.001Z,30.80
2019-04-29T15:19:02.547Z,30.70
2019-04-29T15:21:46.656Z,30.60
2019-04-29T15:24:18.658Z,32.20
2019-04-29T15:26:50.419Z,30.70
2019-04-29T15:31:52.743Z,26.70
2019-04-29T15:34:24.363Z,25.80
2019-04-29T15:36:56.163Z,24.70
2019-04-29T15:39:27.818Z,23.90
2019-04-29T15:42:01.703Z,23.20
2019-04-29T15:44:32.736Z,22.30
2019-04-29T15:47:04.431Z,22.20
2019-04-29T15:49:36.023Z,22.20
2019-04-29T15:52:08.699Z,22.00
2019-04-29T15:54:40.277Z,22.00
2019-04-29T15:57:15.432Z,21.60
2019-04-29T15:59:49.230Z,21.60
2019-04-29T16:02:17.106Z,21.40
2019-04-29T16:04:54.708Z,21.10
2019-04-29T16:07:46.832Z,20.90
2019-04-29T16:10:36.939Z,21.00
2019-04-29T16:15:41.020Z,20.80
2019-04-29T16:20:46.107Z,20.50
2019-04-29T16:23:17.766Z,20.50
2019-04-29T16:25:52.223Z,20.60
2019-04-29T16:28:24.297Z,20.60
2019-04-29T16:30:54.414Z,20.40
2019-04-29T16:33:25.363Z,20.10
2019-04-29T16:35:57.543Z,19.90
2019-04-29T16:38:29.651Z,19.80
2019-04-29T16:41:19.495Z,19.70
2019-04-29T16:43:50.492Z,19.60
2019-04-29T16:46:35.727Z,19.40
2019-04-29T16:49:01.475Z,19.40
2019-04-29T16:51:32.562Z,19.30
2019-04-29T16:56:33.837Z,19.10
2019-04-29T16:59:09.300Z,19.00
2019-04-29T17:01:38.976Z,18.90
2019-04-29T17:06:41.520Z,18.80
2019-04-29T17:09:32.618Z,18.70
2019-04-29T17:15:01.038Z,18.40
2019-04-29T17:17:11.116Z,18.30
2019-04-29T17:19:42.219Z,18.20
2019-04-29T17:22:25.648Z,18.00
2019-04-29T17:24:47.335Z,17.80
2019-04-29T17:30:54.857Z,17.60
2019-04-29T17:33:35.040Z,17.50
2019-04-29T17:35:15.680Z,20.50
2019-04-29T17:36:06.979Z,17.40
2019-04-29T17:38:37.971Z,17.30
2019-04-29T17:41:11.133Z,17.20
2019-04-29T17:44:00.132Z,17.10
2019-04-29T17:49:41.815Z,16.80
2019-04-29T17:54:54.994Z,16.60
2019-04-29T17:57:36.438Z,16.50
2019-04-29T18:00:41.464Z,16.30
2019-04-29T18:03:21.426Z,16.10
2019-04-29T18:06:00.805Z,16.00
2019-04-29T18:08:44.758Z,15.90
2019-04-29T18:11:15.963Z,15.80
2019-04-29T18:13:47.023Z,15.60
2019-04-29T18:16:26.086Z,15.60
2019-04-29T18:19:01.928Z,15.50
2019-04-29T18:21:56.075Z,15.30
2019-04-29T18:24:46.355Z,15.30
2019-04-29T18:27:19.270Z,15.20
2019-04-29T18:32:32.632Z,15.30
2019-04-29T18:37:24.874Z,15.20
2019-04-29T18:39:57.832Z,15.10
2019-04-29T18:42:28.587Z,15.10
2019-04-29T18:45:05.123Z,15.00
2019-04-29T18:47:38.779Z,14.90
2019-04-29T18:50:09.264Z,14.90
2019-04-29T18:52:40.374Z,14.70
2019-04-29T19:00:19.284Z,14.40
2019-04-29T19:02:52.488Z,14.30
2019-04-29T19:05:38.407Z,14.30
2019-04-29T19:08:13.963Z,14.20
2019-04-29T19:10:42.314Z,14.10
2019-04-29T19:13:16.467Z,14.00
2019-04-29T19:15:48.515Z,13.90
2019-04-29T19:18:21.107Z,14.00
2019-04-29T19:20:52.910Z,13.90
2019-04-29T19:23:29.155Z,13.90
2019-04-29T19:25:56.785Z,13.80
2019-04-29T19:28:30.653Z,13.70
2019-04-29T19:31:03.303Z,13.70
2019-04-29T19:33:35.741Z,13.60
2019-04-29T19:36:08.804Z,13.60
2019-04-29T19:38:43.272Z,13.60
2019-04-29T19:41:16.473Z,13.50
2019-04-29T19:43:48.356Z,13.50
2019-04-29T19:46:24.216Z,13.40
2019-04-29T19:48:51.103Z,13.40
2019-04-29T19:51:23.171Z,13.40
2019-04-29T19:53:55.236Z,13.40
2019-04-29T19:56:27.005Z,13.30
2019-04-29T19:58:59.078Z,13.30
2019-04-29T20:01:32.653Z,13.20
2019-04-29T20:04:17.870Z,13.20
2019-04-29T20:06:48.870Z,12.90
2019-04-29T20:11:55.507Z,12.80
2019-04-29T20:14:33.004Z,12.70
2019-04-29T20:17:19.635Z,12.60
2019-04-29T20:22:43.346Z,12.40
2019-04-29T20:27:45.722Z,12.20
2019-04-29T20:30:20.699Z,12.10
2019-04-29T20:32:49.535Z,12.10
2019-04-29T20:35:20.690Z,12.00
2019-04-29T20:40:26.868Z,11.90
2019-04-29T20:42:56.688Z,11.80
2019-04-29T20:45:29.070Z,11.80
2019-04-29T20:48:00.258Z,11.70
2019-04-29T20:50:31.618Z,11.60
2019-04-29T20:55:46.357Z,11.50
2019-04-29T20:58:17.864Z,11.40
2019-04-29T21:03:27.673Z,11.20
2019-04-29T21:05:54.917Z,11.20
2019-04-29T21:08:25.845Z,11.20
2019-04-29T21:10:59.091Z,11.10
2019-04-29T21:13:55.867Z,11.00
2019-04-29T21:16:30.984Z,10.90
2019-04-29T21:21:42.093Z,10.50
2019-04-29T21:24:18.658Z,10.40
2019-04-29T21:26:45.957Z,10.20
2019-04-29T21:31:50.578Z,9.90
2019-04-29T21:34:25.339Z,9.80
2019-04-29T21:37:17.947Z,9.70
2019-04-29T21:39:58.544Z,9.70
2019-04-29T21:42:46.957Z,9.70
2019-04-29T21:45:17.505Z,9.80
2019-04-29T21:47:53.493Z,9.70
2019-04-29T21:50:21.610Z,9.70
2019-04-29T21:52:55.305Z,9.50
2019-04-29T21:55:29.233Z,9.40
2019-04-29T21:57:58.813Z,9.40
2019-04-29T22:00:30.603Z,9.40
2019-04-29T22:05:34.986Z,9.50
2019-04-29T22:08:06.236Z,9.40
2019-04-29T22:10:37.287Z,9.30
2019-04-29T22:13:09.166Z,9.20
2019-04-29T22:15:42.481Z,9.20
2019-04-29T22:18:15.296Z,9.10
2019-04-29T22:20:45.631Z,9.10
2019-04-29T22:23:17.395Z,9.00
2019-04-29T22:25:48.527Z,8.90
2019-04-29T22:28:20.052Z,8.90
2019-04-29T22:30:54.808Z,8.90
2019-04-29T22:33:25.225Z,8.90
2019-04-29T22:35:56.636Z,8.90
2019-04-29T22:38:27.844Z,8.90
2019-04-29T22:41:00.575Z,8.90
2019-04-29T22:43:59.884Z,8.80
2019-04-29T22:46:30.886Z,8.70
2019-04-29T22:49:01.941Z,8.70
2019-04-29T22:51:33.037Z,8.60
2019-04-29T22:56:36.052Z,8.60
2019-04-29T22:59:07.191Z,8.50
2019-04-29T23:01:42.287Z,8.50
2019-04-29T23:04:14.553Z,8.40
2019-04-29T23:06:46.608Z,8.40
2019-04-29T23:09:16.602Z,8.40
2019-04-29T23:11:47.860Z,8.40
2019-04-29T23:14:18.987Z,8.40
2019-04-29T23:16:50.139Z,8.40
2019-04-29T23:19:21.299Z,8.40
2019-04-29T23:22:15.378Z,8.40
2019-04-29T23:25:00.707Z,8.40
2019-04-29T23:27:31.687Z,8.40
2019-04-29T23:30:02.694Z,8.40
2019-04-29T23:32:35.180Z,8.30
2019-04-29T23:35:09.644Z,8.30
2019-04-29T23:37:41.011Z,8.20
2019-04-29T23:40:12.086Z,8.20
2019-04-29T23:42:47.481Z,8.10
2019-04-29T23:45:21.138Z,8.20
2019-04-29T23:47:50.337Z,8.20
2019-04-29T23:50:22.071Z,8.20
2019-04-29T23:52:53.079Z,8.20
2019-04-29T23:58:13.480Z,8.20
